Bardwell, Kentucky
Current Conditions -  °F | °C
As of 4:55 PM on Sunday 21 Dec 2014 (Local Time) from KCIR Reporting Station
Clear Clear  
Wind Chill: 46°   Ceiling: Unl
Heat Index: 46°   Visibility: 7mi
Dew Point: 34°   Wind: 3mph
Humidity: 63%   Direction: 80°E
Pressure: 30.05"   Gusts: NA
Location:  36.87°N, 89.01°W
Report Text: KCIR 212255Z AUTO 08003KT 7SM CLR 08/01 A3005 RMK AO2 T00790012
Loading
Personal Weather Stations






























Interactive Weather Map New forecast layout! Learn more

10-Day Weather Forecast

Advertisements
Track Severe Weather on mobile